sensor_id;sensor_type;location;lat;lon;timestamp;temperature;humidity
1936;DHT22;969;49.892;10.896;2023-08-01T00:01:29;25.00;53.40
1936;DHT22;969;49.892;10.896;2023-08-01T00:03:54;25.00;53.40
1936;DHT22;969;49.892;10.896;2023-08-01T00:06:20;25.00;53.40
1936;DHT22;969;49.892;10.896;2023-08-01T00:08:47;25.00;53.50
1936;DHT22;969;49.892;10.896;2023-08-01T00:11:13;25.00;53.50
1936;DHT22;969;49.892;10.896;2023-08-01T00:13:40;25.00;53.50
1936;DHT22;969;49.892;10.896;2023-08-01T00:16:05;25.00;53.50
1936;DHT22;969;49.892;10.896;2023-08-01T00:18:31;25.00;53.50
1936;DHT22;969;49.892;10.896;2023-08-01T00:20:57;25.00;53.40
1936;DHT22;969;49.892;10.896;2023-08-01T00:23:24;25.00;53.50
1936;DHT22;969;49.892;10.896;2023-08-01T00:25:49;25.00;53.40
1936;DHT22;969;49.892;10.896;2023-08-01T00:28:18;25.00;53.40
1936;DHT22;969;49.892;10.896;2023-08-01T00:30:43;25.00;53.40
1936;DHT22;969;49.892;10.896;2023-08-01T00:33:09;25.00;53.40
1936;DHT22;969;49.892;10.896;2023-08-01T00:35:35;25.00;53.40
1936;DHT22;969;49.892;10.896;2023-08-01T00:38:00;25.00;53.40
1936;DHT22;969;49.892;10.896;2023-08-01T00:40:32;25.00;53.50
1936;DHT22;969;49.892;10.896;2023-08-01T00:42:58;25.00;53.40
1936;DHT22;969;49.892;10.896;2023-08-01T00:45:25;25.00;53.50
1936;DHT22;969;49.892;10.896;2023-08-01T00:47:52;25.00;53.50
1936;DHT22;969;49.892;10.896;2023-08-01T00:50:18;25.00;53.40
1936;DHT22;969;49.892;10.896;2023-08-01T00:52:48;25.00;54.00
1936;DHT22;969;49.892;10.896;2023-08-01T00:55:14;25.00;53.40
1936;DHT22;969;49.892;10.896;2023-08-01T00:57:41;25.00;53.40
1936;DHT22;969;49.892;10.896;2023-08-01T01:00:07;25.00;53.40
1936;DHT22;969;49.892;10.896;2023-08-01T01:02:33;25.00;53.40
1936;DHT22;969;49.892;10.896;2023-08-01T01:04:59;25.00;53.50
1936;DHT22;969;49.892;10.896;2023-08-01T01:07:26;25.00;53.50
1936;DHT22;969;49.892;10.896;2023-08-01T01:09:51;25.00;53.50
1936;DHT22;969;49.892;10.896;2023-08-01T01:12:17;25.00;53.60
1936;DHT22;969;49.892;10.896;2023-08-01T01:14:43;25.00;53.60
1936;DHT22;969;49.892;10.896;2023-08-01T01:17:08;25.00;53.60
1936;DHT22;969;49.892;10.896;2023-08-01T01:19:34;25.00;53.60
1936;DHT22;969;49.892;10.896;2023-08-01T01:21:59;25.00;53.70
1936;DHT22;969;49.892;10.896;2023-08-01T01:24:27;25.00;53.70
1936;DHT22;969;49.892;10.896;2023-08-01T01:26:54;25.00;53.70
1936;DHT22;969;49.892;10.896;2023-08-01T01:29:21;25.00;53.70
1936;DHT22;969;49.892;10.896;2023-08-01T01:31:48;25.00;53.70
1936;DHT22;969;49.892;10.896;2023-08-01T01:34:14;25.00;53.70
1936;DHT22;969;49.892;10.896;2023-08-01T01:36:40;25.00;53.70
1936;DHT22;969;49.892;10.896;2023-08-01T01:39:05;25.00;53.70
1936;DHT22;969;49.892;10.896;2023-08-01T01:41:31;25.00;53.70
1936;DHT22;969;49.892;10.896;2023-08-01T01:43:57;25.00;53.70
1936;DHT22;969;49.892;10.896;2023-08-01T01:46:22;25.00;53.70
1936;DHT22;969;49.892;10.896;2023-08-01T01:48:48;25.00;53.70
1936;DHT22;969;49.892;10.896;2023-08-01T01:51:13;25.00;53.70
1936;DHT22;969;49.892;10.896;2023-08-01T01:53:39;25.00;53.70
1936;DHT22;969;49.892;10.896;2023-08-01T01:56:04;25.00;53.80
1936;DHT22;969;49.892;10.896;2023-08-01T01:58:30;25.00;53.80
1936;DHT22;969;49.892;10.896;2023-08-01T02:00:55;25.00;53.90
1936;DHT22;969;49.892;10.896;2023-08-01T02:03:21;25.00;53.90
1936;DHT22;969;49.892;10.896;2023-08-01T02:05:47;25.00;53.90
1936;DHT22;969;49.892;10.896;2023-08-01T02:08:12;25.00;53.80
1936;DHT22;969;49.892;10.896;2023-08-01T02:10:38;25.00;53.90
1936;DHT22;969;49.892;10.896;2023-08-01T02:13:04;25.00;53.90
1936;DHT22;969;49.892;10.896;2023-08-01T02:15:29;25.00;53.90
1936;DHT22;969;49.892;10.896;2023-08-01T02:17:55;25.00;53.90
1936;DHT22;969;49.892;10.896;2023-08-01T02:20:21;25.00;54.00
1936;DHT22;969;49.892;10.896;2023-08-01T02:22:46;25.00;54.00
1936;DHT22;969;49.892;10.896;2023-08-01T02:25:12;25.00;54.00
1936;DHT22;969;49.892;10.896;2023-08-01T02:27:38;25.00;54.10
1936;DHT22;969;49.892;10.896;2023-08-01T02:30:03;25.00;54.00
1936;DHT22;969;49.892;10.896;2023-08-01T02:32:30;25.00;54.00
1936;DHT22;969;49.892;10.896;2023-08-01T02:34:56;24.90;53.90
1936;DHT22;969;49.892;10.896;2023-08-01T02:37:22;25.00;54.10
1936;DHT22;969;49.892;10.896;2023-08-01T02:39:47;24.90;54.00
1936;DHT22;969;49.892;10.896;2023-08-01T02:42:13;24.90;54.10
1936;DHT22;969;49.892;10.896;2023-08-01T02:44:38;24.90;54.10
1936;DHT22;969;49.892;10.896;2023-08-01T02:47:04;24.90;54.20
1936;DHT22;969;49.892;10.896;2023-08-01T02:49:31;24.90;54.10
1936;DHT22;969;49.892;10.896;2023-08-01T02:51:57;24.90;54.10
1936;DHT22;969;49.892;10.896;2023-08-01T02:54:24;24.90;54.20
1936;DHT22;969;49.892;10.896;2023-08-01T02:56:49;24.90;54.30
1936;DHT22;969;49.892;10.896;2023-08-01T02:59:15;24.90;54.30
1936;DHT22;969;49.892;10.896;2023-08-01T03:01:41;24.90;54.40
1936;DHT22;969;49.892;10.896;2023-08-01T03:04:07;24.90;54.30
1936;DHT22;969;49.892;10.896;2023-08-01T03:06:32;24.90;54.40
1936;DHT22;969;49.892;10.896;2023-08-01T03:08:58;24.90;54.30
1936;DHT22;969;49.892;10.896;2023-08-01T03:11:24;24.90;54.20
1936;DHT22;969;49.892;10.896;2023-08-01T03:13:50;24.90;54.40
1936;DHT22;969;49.892;10.896;2023-08-01T03:16:16;24.90;54.30
1936;DHT22;969;49.892;10.896;2023-08-01T03:18:42;24.90;54.20
1936;DHT22;969;49.892;10.896;2023-08-01T03:21:08;24.90;54.30
1936;DHT22;969;49.892;10.896;2023-08-01T03:23:34;24.90;54.20
1936;DHT22;969;49.892;10.896;2023-08-01T03:25:59;24.90;54.30
1936;DHT22;969;49.892;10.896;2023-08-01T03:28:26;24.90;54.20
1936;DHT22;969;49.892;10.896;2023-08-01T03:30:52;24.90;54.20
1936;DHT22;969;49.892;10.896;2023-08-01T03:33:19;24.90;54.20
1936;DHT22;969;49.892;10.896;2023-08-01T03:35:45;24.90;54.20
1936;DHT22;969;49.892;10.896;2023-08-01T03:38:10;24.90;54.20
1936;DHT22;969;49.892;10.896;2023-08-01T03:40:36;24.90;54.30
1936;DHT22;969;49.892;10.896;2023-08-01T03:43:01;24.90;54.30
1936;DHT22;969;49.892;10.896;2023-08-01T03:45:27;24.90;54.30
1936;DHT22;969;49.892;10.896;2023-08-01T03:47:53;24.90;54.20
1936;DHT22;969;49.892;10.896;2023-08-01T03:50:18;24.90;54.30
1936;DHT22;969;49.892;10.896;2023-08-01T03:52:44;24.90;54.30
1936;DHT22;969;49.892;10.896;2023-08-01T03:55:10;24.90;54.40
1936;DHT22;969;49.892;10.896;2023-08-01T03:57:37;24.90;54.40
1936;DHT22;969;49.892;10.896;2023-08-01T04:00:05;24.90;54.30
1936;DHT22;969;49.892;10.896;2023-08-01T04:02:31;24.90;54.30
1936;DHT22;969;49.892;10.896;2023-08-01T04:04:56;24.90;54.60
1936;DHT22;969;49.892;10.896;2023-08-01T04:07:22;24.90;54.60
1936;DHT22;969;49.892;10.896;2023-08-01T04:09:48;24.90;54.70
1936;DHT22;969;49.892;10.896;2023-08-01T04:12:14;24.90;54.80
1936;DHT22;969;49.892;10.896;2023-08-01T04:14:39;24.90;54.80
1936;DHT22;969;49.892;10.896;2023-08-01T04:17:05;24.90;54.80
1936;DHT22;969;49.892;10.896;2023-08-01T04:19:31;24.90;54.80
1936;DHT22;969;49.892;10.896;2023-08-01T04:21:56;24.90;54.90
1936;DHT22;969;49.892;10.896;2023-08-01T04:24:22;24.90;54.80
1936;DHT22;969;49.892;10.896;2023-08-01T04:26:50;24.90;54.80
1936;DHT22;969;49.892;10.896;2023-08-01T04:29:17;24.90;54.80
1936;DHT22;969;49.892;10.896;2023-08-01T04:31:43;24.90;54.80
1936;DHT22;969;49.892;10.896;2023-08-01T04:34:09;24.90;54.70
1936;DHT22;969;49.892;10.896;2023-08-01T04:36:34;24.90;54.60
1936;DHT22;969;49.892;10.896;2023-08-01T04:39:00;24.90;54.60
1936;DHT22;969;49.892;10.896;2023-08-01T04:41:25;24.90;54.70
1936;DHT22;969;49.892;10.896;2023-08-01T04:43:51;24.90;54.70
1936;DHT22;969;49.892;10.896;2023-08-01T04:46:17;24.90;54.80
1936;DHT22;969;49.892;10.896;2023-08-01T04:48:43;24.90;54.80
1936;DHT22;969;49.892;10.896;2023-08-01T04:51:08;24.90;54.80
1936;DHT22;969;49.892;10.896;2023-08-01T04:53:34;24.90;54.80
1936;DHT22;969;49.892;10.896;2023-08-01T04:55:59;24.90;54.70
1936;DHT22;969;49.892;10.896;2023-08-01T04:58:25;24.90;54.70
1936;DHT22;969;49.892;10.896;2023-08-01T05:00:51;24.90;54.70
1936;DHT22;969;49.892;10.896;2023-08-01T05:03:16;24.90;54.70
1936;DHT22;969;49.892;10.896;2023-08-01T05:05:42;24.90;54.80
1936;DHT22;969;49.892;10.896;2023-08-01T05:08:08;24.90;54.80
1936;DHT22;969;49.892;10.896;2023-08-01T05:10:33;24.90;55.00
1936;DHT22;969;49.892;10.896;2023-08-01T05:12:59;24.90;55.00
1936;DHT22;969;49.892;10.896;2023-08-01T05:15:24;24.90;55.10
1936;DHT22;969;49.892;10.896;2023-08-01T05:17:50;24.90;55.10
1936;DHT22;969;49.892;10.896;2023-08-01T05:20:16;24.90;55.20
1936;DHT22;969;49.892;10.896;2023-08-01T05:22:41;24.90;55.30
1936;DHT22;969;49.892;10.896;2023-08-01T05:25:07;24.90;55.40
1936;DHT22;969;49.892;10.896;2023-08-01T05:27:32;24.90;55.40
1936;DHT22;969;49.892;10.896;2023-08-01T05:29:59;24.90;55.40
1936;DHT22;969;49.892;10.896;2023-08-01T05:32:25;24.90;55.40
1936;DHT22;969;49.892;10.896;2023-08-01T05:34:50;24.90;55.40
1936;DHT22;969;49.892;10.896;2023-08-01T05:37:16;24.90;55.40
1936;DHT22;969;49.892;10.896;2023-08-01T05:39:41;24.90;55.50
1936;DHT22;969;49.892;10.896;2023-08-01T05:42:07;24.90;55.60
1936;DHT22;969;49.892;10.896;2023-08-01T05:44:34;24.90;55.60
1936;DHT22;969;49.892;10.896;2023-08-01T05:47:00;24.90;55.60
1936;DHT22;969;49.892;10.896;2023-08-01T05:49:25;24.90;55.60
1936;DHT22;969;49.892;10.896;2023-08-01T05:51:51;24.90;55.70
1936;DHT22;969;49.892;10.896;2023-08-01T05:54:16;24.90;55.70
1936;DHT22;969;49.892;10.896;2023-08-01T05:56:42;24.90;55.70
1936;DHT22;969;49.892;10.896;2023-08-01T05:59:08;24.90;55.70
1936;DHT22;969;49.892;10.896;2023-08-01T06:01:34;24.90;55.70
1936;DHT22;969;49.892;10.896;2023-08-01T06:03:59;24.90;55.60
1936;DHT22;969;49.892;10.896;2023-08-01T06:06:25;24.90;55.70
1936;DHT22;969;49.892;10.896;2023-08-01T06:08:50;24.90;55.60
1936;DHT22;969;49.892;10.896;2023-08-01T06:11:17;24.90;55.40
1936;DHT22;969;49.892;10.896;2023-08-01T06:13:42;24.90;55.40
1936;DHT22;969;49.892;10.896;2023-08-01T06:16:08;24.90;55.30
1936;DHT22;969;49.892;10.896;2023-08-01T06:18:33;24.90;55.30
1936;DHT22;969;49.892;10.896;2023-08-01T06:20:59;24.90;55.20
1936;DHT22;969;49.892;10.896;2023-08-01T06:23:25;24.90;55.40
1936;DHT22;969;49.892;10.896;2023-08-01T06:25:50;24.90;55.40
1936;DHT22;969;49.892;10.896;2023-08-01T06:28:16;24.90;55.40
1936;DHT22;969;49.892;10.896;2023-08-01T06:30:41;24.90;55.60
1936;DHT22;969;49.892;10.896;2023-08-01T06:33:07;24.90;55.70
1936;DHT22;969;49.892;10.896;2023-08-01T06:35:32;24.90;55.70
1936;DHT22;969;49.892;10.896;2023-08-01T06:37:58;24.90;55.70
1936;DHT22;969;49.892;10.896;2023-08-01T06:40:23;24.90;56.40
1936;DHT22;969;49.892;10.896;2023-08-01T06:42:50;24.90;55.80
1936;DHT22;969;49.892;10.896;2023-08-01T06:45:16;24.90;56.00
1936;DHT22;969;49.892;10.896;2023-08-01T06:47:42;24.90;55.90
1936;DHT22;969;49.892;10.896;2023-08-01T06:50:07;24.90;55.90
1936;DHT22;969;49.892;10.896;2023-08-01T06:52:33;24.90;56.00
1936;DHT22;969;49.892;10.896;2023-08-01T06:54:59;24.90;56.00
1936;DHT22;969;49.892;10.896;2023-08-01T06:57:24;24.90;56.00
1936;DHT22;969;49.892;10.896;2023-08-01T06:59:50;24.90;56.00
1936;DHT22;969;49.892;10.896;2023-08-01T07:02:15;24.90;56.00
1936;DHT22;969;49.892;10.896;2023-08-01T07:04:41;24.90;55.90
1936;DHT22;969;49.892;10.896;2023-08-01T07:07:07;24.90;55.70
1936;DHT22;969;49.892;10.896;2023-08-01T07:09:34;24.90;56.30
1936;DHT22;969;49.892;10.896;2023-08-01T07:11:59;24.90;55.70
1936;DHT22;969;49.892;10.896;2023-08-01T07:14:25;24.90;55.50
1936;DHT22;969;49.892;10.896;2023-08-01T07:16:51;24.90;55.30
1936;DHT22;969;49.892;10.896;2023-08-01T07:19:16;24.90;55.20
1936;DHT22;969;49.892;10.896;2023-08-01T07:21:42;25.00;55.20
1936;DHT22;969;49.892;10.896;2023-08-01T07:24:09;25.00;55.10
1936;DHT22;969;49.892;10.896;2023-08-01T07:26:35;25.00;55.60
1936;DHT22;969;49.892;10.896;2023-08-01T07:29:01;25.00;55.10
1936;DHT22;969;49.892;10.896;2023-08-01T07:31:26;25.00;55.00
1936;DHT22;969;49.892;10.896;2023-08-01T07:33:52;25.00;55.00
1936;DHT22;969;49.892;10.896;2023-08-01T07:36:17;25.00;55.00
1936;DHT22;969;49.892;10.896;2023-08-01T07:38:43;25.00;54.90
1936;DHT22;969;49.892;10.896;2023-08-01T07:41:09;25.00;54.90
1936;DHT22;969;49.892;10.896;2023-08-01T07:43:35;25.00;54.90
1936;DHT22;969;49.892;10.896;2023-08-01T07:46:01;25.10;55.00
1936;DHT22;969;49.892;10.896;2023-08-01T07:48:26;25.00;54.90
1936;DHT22;969;49.892;10.896;2023-08-01T07:50:52;25.10;55.00
1936;DHT22;969;49.892;10.896;2023-08-01T07:53:18;25.10;55.00
1936;DHT22;969;49.892;10.896;2023-08-01T07:55:43;25.10;55.00
1936;DHT22;969;49.892;10.896;2023-08-01T07:58:09;25.10;55.00
1936;DHT22;969;49.892;10.896;2023-08-01T08:00:35;25.10;55.00
1936;DHT22;969;49.892;10.896;2023-08-01T08:03:00;25.10;55.00
1936;DHT22;969;49.892;10.896;2023-08-01T08:05:26;25.10;54.90
1936;DHT22;969;49.892;10.896;2023-08-01T08:07:52;25.10;55.00
1936;DHT22;969;49.892;10.896;2023-08-01T08:10:17;25.10;55.00
1936;DHT22;969;49.892;10.896;2023-08-01T08:12:43;25.10;55.00
1936;DHT22;969;49.892;10.896;2023-08-01T08:15:09;25.10;55.00
1936;DHT22;969;49.892;10.896;2023-08-01T08:17:34;25.10;54.90
1936;DHT22;969;49.892;10.896;2023-08-01T08:20:00;25.10;54.90
1936;DHT22;969;49.892;10.896;2023-08-01T08:22:25;25.10;54.90
1936;DHT22;969;49.892;10.896;2023-08-01T08:24:52;25.20;55.00
1936;DHT22;969;49.892;10.896;2023-08-01T08:27:17;25.20;55.00
1936;DHT22;969;49.892;10.896;2023-08-01T08:29:43;25.20;55.00
1936;DHT22;969;49.892;10.896;2023-08-01T08:32:08;25.20;55.00
1936;DHT22;969;49.892;10.896;2023-08-01T08:34:34;25.20;55.00
1936;DHT22;969;49.892;10.896;2023-08-01T08:36:59;25.20;55.00
1936;DHT22;969;49.892;10.896;2023-08-01T08:39:25;25.20;55.00
1936;DHT22;969;49.892;10.896;2023-08-01T08:41:52;25.20;55.00
1936;DHT22;969;49.892;10.896;2023-08-01T08:44:19;25.20;55.00
1936;DHT22;969;49.892;10.896;2023-08-01T08:46:52;25.20;55.00
1936;DHT22;969;49.892;10.896;2023-08-01T08:49:21;25.20;55.00
1936;DHT22;969;49.892;10.896;2023-08-01T08:51:48;25.20;55.00
1936;DHT22;969;49.892;10.896;2023-08-01T08:54:15;25.20;55.00
1936;DHT22;969;49.892;10.896;2023-08-01T08:56:41;25.20;55.00
1936;DHT22;969;49.892;10.896;2023-08-01T08:59:10;25.20;55.00
1936;DHT22;969;49.892;10.896;2023-08-01T09:01:37;25.30;55.10
1936;DHT22;969;49.892;10.896;2023-08-01T09:04:03;25.20;55.00
1936;DHT22;969;49.892;10.896;2023-08-01T09:06:32;25.30;55.10
1936;DHT22;969;49.892;10.896;2023-08-01T09:09:12;25.30;55.10
1936;DHT22;969;49.892;10.896;2023-08-01T09:11:44;25.30;55.10
1936;DHT22;969;49.892;10.896;2023-08-01T09:14:09;25.30;55.10
1936;DHT22;969;49.892;10.896;2023-08-01T09:16:35;25.30;55.10
1936;DHT22;969;49.892;10.896;2023-08-01T09:19:01;25.30;55.10
1936;DHT22;969;49.892;10.896;2023-08-01T09:21:31;25.30;55.10
1936;DHT22;969;49.892;10.896;2023-08-01T09:24:19;25.30;55.10
1936;DHT22;969;49.892;10.896;2023-08-01T09:26:46;25.30;55.20
1936;DHT22;969;49.892;10.896;2023-08-01T09:29:11;25.30;55.20
1936;DHT22;969;49.892;10.896;2023-08-01T09:31:41;25.30;55.20
1936;DHT22;969;49.892;10.896;2023-08-01T09:34:22;25.30;55.20
1936;DHT22;969;49.892;10.896;2023-08-01T09:36:51;25.30;55.20
1936;DHT22;969;49.892;10.896;2023-08-01T09:39:22;25.30;55.20
1936;DHT22;969;49.892;10.896;2023-08-01T09:42:01;25.30;55.20
1936;DHT22;969;49.892;10.896;2023-08-01T09:44:28;25.30;55.20
1936;DHT22;969;49.892;10.896;2023-08-01T09:47:00;25.30;55.20
1936;DHT22;969;49.892;10.896;2023-08-01T09:49:30;25.30;55.20
1936;DHT22;969;49.892;10.896;2023-08-01T09:51:57;25.30;55.20
1936;DHT22;969;49.892;10.896;2023-08-01T09:54:23;25.30;55.20
1936;DHT22;969;49.892;10.896;2023-08-01T09:56:50;25.30;55.20
1936;DHT22;969;49.892;10.896;2023-08-01T09:59:26;25.40;55.30
1936;DHT22;969;49.892;10.896;2023-08-01T10:01:53;25.40;55.30
1936;DHT22;969;49.892;10.896;2023-08-01T10:04:32;25.40;55.30
1936;DHT22;969;49.892;10.896;2023-08-01T10:07:11;25.40;55.30
1936;DHT22;969;49.892;10.896;2023-08-01T10:09:40;25.40;55.30
1936;DHT22;969;49.892;10.896;2023-08-01T10:12:07;25.40;55.30
1936;DHT22;969;49.892;10.896;2023-08-01T10:14:33;25.40;55.30
1936;DHT22;969;49.892;10.896;2023-08-01T10:16:59;25.40;55.30
1936;DHT22;969;49.892;10.896;2023-08-01T10:19:25;25.40;55.30
1936;DHT22;969;49.892;10.896;2023-08-01T10:21:52;25.40;55.30
1936;DHT22;969;49.892;10.896;2023-08-01T10:24:19;25.40;55.30
1936;DHT22;969;49.892;10.896;2023-08-01T10:26:45;25.40;55.30
1936;DHT22;969;49.892;10.896;2023-08-01T10:29:13;25.40;55.30
1936;DHT22;969;49.892;10.896;2023-08-01T10:31:39;25.40;55.40
1936;DHT22;969;49.892;10.896;2023-08-01T10:34:15;25.40;55.40
1936;DHT22;969;49.892;10.896;2023-08-01T10:36:41;25.40;55.30
1936;DHT22;969;49.892;10.896;2023-08-01T10:39:07;25.40;55.30
1936;DHT22;969;49.892;10.896;2023-08-01T10:41:34;25.40;55.30
1936;DHT22;969;49.892;10.896;2023-08-01T10:44:15;25.40;55.30
1936;DHT22;969;49.892;10.896;2023-08-01T10:49:20;25.40;55.20
1936;DHT22;969;49.892;10.896;2023-08-01T10:51:47;25.40;55.10
1936;DHT22;969;49.892;10.896;2023-08-01T10:54:23;25.40;55.10
1936;DHT22;969;49.892;10.896;2023-08-01T10:56:51;25.40;55.10
1936;DHT22;969;49.892;10.896;2023-08-01T10:59:17;25.40;55.00
1936;DHT22;969;49.892;10.896;2023-08-01T11:01:52;25.40;55.00
1936;DHT22;969;49.892;10.896;2023-08-01T11:04:21;25.40;55.00
1936;DHT22;969;49.892;10.896;2023-08-01T11:06:51;25.40;55.00
1936;DHT22;969;49.892;10.896;2023-08-01T11:09:27;25.40;55.00
1936;DHT22;969;49.892;10.896;2023-08-01T11:11:55;25.40;55.00
1936;DHT22;969;49.892;10.896;2023-08-01T11:14:23;25.40;55.00
1936;DHT22;969;49.892;10.896;2023-08-01T11:16:49;25.40;55.00
1936;DHT22;969;49.892;10.896;2023-08-01T11:21:45;25.40;55.00
1936;DHT22;969;49.892;10.896;2023-08-01T11:24:11;25.40;55.00
1936;DHT22;969;49.892;10.896;2023-08-01T11:26:41;25.40;55.00
1936;DHT22;969;49.892;10.896;2023-08-01T11:29:07;25.40;55.10
1936;DHT22;969;49.892;10.896;2023-08-01T11:31:32;25.40;55.00
1936;DHT22;969;49.892;10.896;2023-08-01T11:33:59;25.40;55.00
1936;DHT22;969;49.892;10.896;2023-08-01T11:36:28;25.40;55.00
1936;DHT22;969;49.892;10.896;2023-08-01T11:38:57;25.40;55.10
1936;DHT22;969;49.892;10.896;2023-08-01T11:41:24;25.30;55.00
1936;DHT22;969;49.892;10.896;2023-08-01T11:43:51;25.30;55.00
1936;DHT22;969;49.892;10.896;2023-08-01T11:46:17;25.30;55.00
1936;DHT22;969;49.892;10.896;2023-08-01T11:48:46;25.30;55.00
1936;DHT22;969;49.892;10.896;2023-08-01T11:51:12;25.30;55.00
1936;DHT22;969;49.892;10.896;2023-08-01T11:53:38;25.30;55.00
1936;DHT22;969;49.892;10.896;2023-08-01T11:56:05;25.30;55.00
1936;DHT22;969;49.892;10.896;2023-08-01T11:58:32;25.30;55.10
1936;DHT22;969;49.892;10.896;2023-08-01T12:01:09;25.30;55.10
1936;DHT22;969;49.892;10.896;2023-08-01T12:03:48;25.30;55.10
1936;DHT22;969;49.892;10.896;2023-08-01T12:06:15;25.30;55.10
1936;DHT22;969;49.892;10.896;2023-08-01T12:08:45;25.30;55.20
1936;DHT22;969;49.892;10.896;2023-08-01T12:11:25;25.30;55.20
1936;DHT22;969;49.892;10.896;2023-08-01T12:16:29;25.30;55.10
1936;DHT22;969;49.892;10.896;2023-08-01T12:18:55;25.30;55.10
1936;DHT22;969;49.892;10.896;2023-08-01T12:21:21;25.30;55.00
1936;DHT22;969;49.892;10.896;2023-08-01T12:23:47;25.30;55.00
1936;DHT22;969;49.892;10.896;2023-08-01T12:26:12;25.30;55.00
1936;DHT22;969;49.892;10.896;2023-08-01T12:28:38;25.30;55.00
1936;DHT22;969;49.892;10.896;2023-08-01T12:31:03;25.30;55.00
1936;DHT22;969;49.892;10.896;2023-08-01T12:33:29;25.30;54.90
1936;DHT22;969;49.892;10.896;2023-08-01T12:35:55;25.30;55.10
1936;DHT22;969;49.892;10.896;2023-08-01T12:38:20;25.30;55.00
1936;DHT22;969;49.892;10.896;2023-08-01T12:40:46;25.30;55.00
1936;DHT22;969;49.892;10.896;2023-08-01T12:43:12;25.30;55.00
1936;DHT22;969;49.892;10.896;2023-08-01T12:45:38;25.30;55.00
1936;DHT22;969;49.892;10.896;2023-08-01T12:48:03;25.30;54.90
1936;DHT22;969;49.892;10.896;2023-08-01T12:50:29;25.30;55.00
1936;DHT22;969;49.892;10.896;2023-08-01T12:52:54;25.30;55.00
1936;DHT22;969;49.892;10.896;2023-08-01T12:55:20;25.30;54.90
1936;DHT22;969;49.892;10.896;2023-08-01T12:57:46;25.30;55.00
1936;DHT22;969;49.892;10.896;2023-08-01T13:00:12;25.30;55.10
1936;DHT22;969;49.892;10.896;2023-08-01T13:02:37;25.30;55.10
1936;DHT22;969;49.892;10.896;2023-08-01T13:05:04;25.30;55.10
1936;DHT22;969;49.892;10.896;2023-08-01T13:07:30;25.30;55.10
1936;DHT22;969;49.892;10.896;2023-08-01T13:10:00;25.30;55.10
1936;DHT22;969;49.892;10.896;2023-08-01T13:12:26;25.30;55.20
1936;DHT22;969;49.892;10.896;2023-08-01T13:14:51;25.30;55.10
1936;DHT22;969;49.892;10.896;2023-08-01T13:17:17;25.30;55.20
1936;DHT22;969;49.892;10.896;2023-08-01T13:19:42;25.30;55.20
1936;DHT22;969;49.892;10.896;2023-08-01T13:22:08;25.30;55.10
1936;DHT22;969;49.892;10.896;2023-08-01T13:24:33;25.30;55.10
1936;DHT22;969;49.892;10.896;2023-08-01T13:26:59;25.30;55.00
1936;DHT22;969;49.892;10.896;2023-08-01T13:29:25;25.30;55.10
1936;DHT22;969;49.892;10.896;2023-08-01T13:31:50;25.30;55.10
1936;DHT22;969;49.892;10.896;2023-08-01T13:34:16;25.30;55.10
1936;DHT22;969;49.892;10.896;2023-08-01T13:36:43;25.30;55.10
1936;DHT22;969;49.892;10.896;2023-08-01T13:39:08;25.30;55.10
1936;DHT22;969;49.892;10.896;2023-08-01T13:41:35;25.30;55.10
1936;DHT22;969;49.892;10.896;2023-08-01T13:44:00;25.30;55.10
1936;DHT22;969;49.892;10.896;2023-08-01T13:46:26;25.30;55.10
1936;DHT22;969;49.892;10.896;2023-08-01T13:48:51;25.30;55.10
1936;DHT22;969;49.892;10.896;2023-08-01T13:51:17;25.30;55.10
1936;DHT22;969;49.892;10.896;2023-08-01T13:53:43;25.30;55.20
1936;DHT22;969;49.892;10.896;2023-08-01T13:56:09;25.30;55.10
1936;DHT22;969;49.892;10.896;2023-08-01T13:58:35;25.30;55.10
1936;DHT22;969;49.892;10.896;2023-08-01T14:01:08;25.30;55.00
1936;DHT22;969;49.892;10.896;2023-08-01T14:03:38;25.30;55.00
1936;DHT22;969;49.892;10.896;2023-08-01T14:06:08;25.30;55.00
1936;DHT22;969;49.892;10.896;2023-08-01T14:08:34;25.30;54.90
1936;DHT22;969;49.892;10.896;2023-08-01T14:11:02;25.30;54.90
1936;DHT22;969;49.892;10.896;2023-08-01T14:13:28;25.30;54.90
1936;DHT22;969;49.892;10.896;2023-08-01T14:15:54;25.30;54.80
1936;DHT22;969;49.892;10.896;2023-08-01T14:18:19;25.30;54.80
1936;DHT22;969;49.892;10.896;2023-08-01T14:20:48;25.30;54.80
1936;DHT22;969;49.892;10.896;2023-08-01T14:23:13;25.30;54.80
1936;DHT22;969;49.892;10.896;2023-08-01T14:25:39;25.30;54.80
1936;DHT22;969;49.892;10.896;2023-08-01T14:28:05;25.30;54.80
1936;DHT22;969;49.892;10.896;2023-08-01T14:30:30;25.30;54.80
1936;DHT22;969;49.892;10.896;2023-08-01T14:33:00;25.30;54.80
1936;DHT22;969;49.892;10.896;2023-08-01T14:35:26;25.30;54.90
1936;DHT22;969;49.892;10.896;2023-08-01T14:37:52;25.30;54.90
1936;DHT22;969;49.892;10.896;2023-08-01T14:40:17;25.30;54.90
1936;DHT22;969;49.892;10.896;2023-08-01T14:42:43;25.30;54.80
1936;DHT22;969;49.892;10.896;2023-08-01T14:45:08;25.30;54.80
1936;DHT22;969;49.892;10.896;2023-08-01T14:47:34;25.30;54.80
1936;DHT22;969;49.892;10.896;2023-08-01T14:50:03;25.30;54.80
1936;DHT22;969;49.892;10.896;2023-08-01T14:52:29;25.30;54.80
1936;DHT22;969;49.892;10.896;2023-08-01T14:54:55;25.30;54.80
1936;DHT22;969;49.892;10.896;2023-08-01T14:57:20;25.30;54.80
1936;DHT22;969;49.892;10.896;2023-08-01T14:59:46;25.30;54.80
1936;DHT22;969;49.892;10.896;2023-08-01T15:02:11;25.30;54.70
1936;DHT22;969;49.892;10.896;2023-08-01T15:04:37;25.30;54.80
1936;DHT22;969;49.892;10.896;2023-08-01T15:07:02;25.30;54.80
1936;DHT22;969;49.892;10.896;2023-08-01T15:09:29;25.30;54.80
1936;DHT22;969;49.892;10.896;2023-08-01T15:11:55;25.30;54.80
1936;DHT22;969;49.892;10.896;2023-08-01T15:14:20;25.30;54.90
1936;DHT22;969;49.892;10.896;2023-08-01T15:16:48;25.30;54.90
1936;DHT22;969;49.892;10.896;2023-08-01T15:19:14;25.30;54.90
1936;DHT22;969;49.892;10.896;2023-08-01T15:21:39;25.30;54.80
1936;DHT22;969;49.892;10.896;2023-08-01T15:24:05;25.30;54.80
1936;DHT22;969;49.892;10.896;2023-08-01T15:26:30;25.30;54.90
1936;DHT22;969;49.892;10.896;2023-08-01T15:28:56;25.30;54.90
1936;DHT22;969;49.892;10.896;2023-08-01T15:31:22;25.30;54.80
1936;DHT22;969;49.892;10.896;2023-08-01T15:33:47;25.30;54.90
1936;DHT22;969;49.892;10.896;2023-08-01T15:36:13;25.30;54.90
1936;DHT22;969;49.892;10.896;2023-08-01T15:38:39;25.30;55.00
1936;DHT22;969;49.892;10.896;2023-08-01T15:41:05;25.30;55.00
1936;DHT22;969;49.892;10.896;2023-08-01T15:43:35;25.30;55.00
1936;DHT22;969;49.892;10.896;2023-08-01T15:46:01;25.30;55.20
1936;DHT22;969;49.892;10.896;2023-08-01T15:48:27;25.30;55.10
1936;DHT22;969;49.892;10.896;2023-08-01T15:50:52;25.30;55.00
1936;DHT22;969;49.892;10.896;2023-08-01T15:53:18;25.30;55.00
1936;DHT22;969;49.892;10.896;2023-08-01T15:55:43;25.30;55.10
1936;DHT22;969;49.892;10.896;2023-08-01T15:58:09;25.30;55.00
1936;DHT22;969;49.892;10.896;2023-08-01T16:00:34;25.30;55.10
1936;DHT22;969;49.892;10.896;2023-08-01T16:03:01;25.30;55.10
1936;DHT22;969;49.892;10.896;2023-08-01T16:05:30;25.30;55.10